createdAt,value
2022-11-29T00:01:26.372Z,9.53
2022-11-29T00:03:53.817Z,10.70
2022-11-29T00:06:28.677Z,10.23
2022-11-29T00:08:56.485Z,9.77
2022-11-29T00:11:43.213Z,9.83
2022-11-29T00:14:12.147Z,10.13
2022-11-29T00:16:42.373Z,10.93
2022-11-29T00:19:10.358Z,10.60
2022-11-29T00:21:37.409Z,9.83
2022-11-29T00:24:04.582Z,10.43
2022-11-29T00:26:31.636Z,10.73
2022-11-29T00:28:58.697Z,10.73
2022-11-29T00:31:27.052Z,10.30
2022-11-29T00:33:54.371Z,10.87
2022-11-29T00:36:21.441Z,10.37
2022-11-29T00:38:48.504Z,9.80
2022-11-29T00:41:15.658Z,10.10
2022-11-29T00:43:42.919Z,11.13
2022-11-29T00:46:10.443Z,10.13
2022-11-29T00:48:38.092Z,10.73
2022-11-29T00:51:05.877Z,10.20
2022-11-29T00:53:33.602Z,11.30
2022-11-29T00:56:00.707Z,11.43
2022-11-29T00:58:28.244Z,11.93
2022-11-29T01:00:55.692Z,11.73
2022-11-29T01:03:23.324Z,11.77
2022-11-29T01:05:50.895Z,12.10
2022-11-29T01:08:18.036Z,12.03
2022-11-29T01:10:45.242Z,11.97
2022-11-29T01:13:12.668Z,11.30
2022-11-29T01:15:40.346Z,12.33
2022-11-29T01:18:07.426Z,12.50
2022-11-29T01:20:34.483Z,12.43
2022-11-29T01:23:01.547Z,11.83
2022-11-29T01:25:29.319Z,12.90
2022-11-29T01:27:56.341Z,12.50
2022-11-29T01:30:23.412Z,11.90
2022-11-29T01:32:50.540Z,12.43
2022-11-29T01:35:17.650Z,12.87
2022-11-29T01:37:44.701Z,11.87
2022-11-29T01:40:12.039Z,12.90
2022-11-29T01:42:39.099Z,12.67
2022-11-29T01:45:21.138Z,11.77
2022-11-29T01:47:50.030Z,12.13
2022-11-29T01:50:17.322Z,11.57
2022-11-29T01:52:44.667Z,11.80
2022-11-29T01:55:11.855Z,12.07
2022-11-29T01:57:40.469Z,12.03
2022-11-29T02:00:09.830Z,12.40
2022-11-29T02:02:39.451Z,11.20
2022-11-29T02:05:07.146Z,11.80
2022-11-29T02:07:34.373Z,12.10
2022-11-29T02:10:02.696Z,11.57
2022-11-29T02:12:41.729Z,12.63
2022-11-29T02:15:08.826Z,11.93
2022-11-29T02:17:54.836Z,11.77
2022-11-29T02:20:28.064Z,11.43
2022-11-29T02:22:55.101Z,11.10
2022-11-29T02:25:34.538Z,11.57
2022-11-29T02:28:04.474Z,11.17
2022-11-29T02:30:50.245Z,11.70
2022-11-29T02:33:29.591Z,11.27
2022-11-29T02:36:02.459Z,11.37
2022-11-29T02:38:35.365Z,10.80
2022-11-29T02:41:20.989Z,10.87
2022-11-29T02:43:48.042Z,11.07
2022-11-29T02:46:33.801Z,11.13
2022-11-29T02:49:10.590Z,10.60
2022-11-29T02:51:46.104Z,10.10
2022-11-29T02:54:20.336Z,10.50
2022-11-29T02:56:54.172Z,9.77
2022-11-29T02:59:24.205Z,9.80
2022-11-29T03:01:57.164Z,10.63
2022-11-29T03:04:24.185Z,10.47
2022-11-29T03:06:55.149Z,10.10
2022-11-29T03:09:45.038Z,9.90
2022-11-29T03:12:34.473Z,9.90
2022-11-29T03:15:27.880Z,9.97
2022-11-29T03:18:10.165Z,9.80
2022-11-29T03:20:50.060Z,10.40
2022-11-29T03:23:25.999Z,10.30
2022-11-29T03:25:59.850Z,9.67
2022-11-29T03:28:26.880Z,10.17
2022-11-29T03:31:14.275Z,10.83
2022-11-29T03:33:46.861Z,9.87
2022-11-29T03:36:21.139Z,9.93
2022-11-29T03:38:48.319Z,10.27
2022-11-29T03:41:21.194Z,11.00
2022-11-29T03:43:51.399Z,9.87
2022-11-29T03:46:30.146Z,10.40
2022-11-29T03:49:00.120Z,10.90
2022-11-29T03:51:32.176Z,10.40
2022-11-29T03:54:02.083Z,9.93
2022-11-29T03:56:32.074Z,10.10
2022-11-29T03:59:05.005Z,10.37
2022-11-29T04:01:50.688Z,9.80
2022-11-29T04:04:33.186Z,9.73
2022-11-29T04:07:00.191Z,10.03
2022-11-29T04:10:02.885Z,9.90
2022-11-29T04:12:48.792Z,10.17
2022-11-29T04:15:27.771Z,10.13
2022-11-29T04:18:13.059Z,10.37
2022-11-29T04:20:47.856Z,9.30
2022-11-29T04:23:33.948Z,10.17
2022-11-29T04:26:00.981Z,8.97
2022-11-29T04:28:36.956Z,10.47
2022-11-29T04:31:22.586Z,9.93
2022-11-29T04:34:08.469Z,10.10
2022-11-29T04:36:38.705Z,10.57
2022-11-29T04:39:05.713Z,10.30
2022-11-29T04:41:42.373Z,10.13
2022-11-29T04:44:12.319Z,10.10
2022-11-29T04:46:57.878Z,10.57
2022-11-29T04:49:24.936Z,9.47
2022-11-29T04:51:51.960Z,10.20
2022-11-29T04:54:32.071Z,9.40
2022-11-29T04:57:06.770Z,9.40
2022-11-29T04:59:49.889Z,9.30
2022-11-29T05:02:16.922Z,9.40
2022-11-29T05:04:59.087Z,9.93
2022-11-29T05:07:30.567Z,10.10
2022-11-29T05:10:03.825Z,9.93
2022-11-29T05:12:39.460Z,9.70
2022-11-29T05:15:25.472Z,9.97
2022-11-29T05:18:11.388Z,9.67
2022-11-29T05:20:50.434Z,8.90
2022-11-29T05:23:23.381Z,9.93
2022-11-29T05:25:53.274Z,9.83
2022-11-29T05:28:38.904Z,10.10
2022-11-29T05:31:24.802Z,9.33
2022-11-29T05:33:59.760Z,9.80
2022-11-29T05:36:45.502Z,9.37
2022-11-29T05:39:21.132Z,9.20
2022-11-29T05:41:55.930Z,9.27
2022-11-29T05:44:37.717Z,9.23
2022-11-29T05:47:05.914Z,9.53
2022-11-29T05:49:44.181Z,9.50
2022-11-29T05:52:14.020Z,8.53
2022-11-29T05:54:50.077Z,9.63
2022-11-29T05:57:23.013Z,9.10
2022-11-29T05:59:51.048Z,9.40
2022-11-29T06:02:24.992Z,9.57
2022-11-29T06:04:58.172Z,9.17
2022-11-29T06:07:33.505Z,8.67
2022-11-29T06:10:03.891Z,8.70
2022-11-29T06:12:31.899Z,9.03
2022-11-29T06:15:34.660Z,9.37
2022-11-29T06:18:01.720Z,9.60
2022-11-29T06:20:47.462Z,9.47
2022-11-29T06:23:33.415Z,8.47
2022-11-29T06:26:04.145Z,9.20
2022-11-29T06:28:50.303Z,8.83
2022-11-29T06:31:29.560Z,7.67
2022-11-29T06:33:56.692Z,8.77
2022-11-29T06:36:31.852Z,8.70
2022-11-29T06:38:59.145Z,9.60
2022-11-29T06:41:26.340Z,9.17
2022-11-29T06:43:53.561Z,8.50
2022-11-29T06:46:23.831Z,8.87
2022-11-29T06:49:02.244Z,8.70
2022-11-29T06:51:32.697Z,8.83
2022-11-29T06:54:15.043Z,8.13
2022-11-29T06:56:51.630Z,9.10
2022-11-29T06:59:29.305Z,8.33
2022-11-29T07:02:13.611Z,8.83
2022-11-29T07:04:45.733Z,8.37
2022-11-29T07:07:15.416Z,7.93
2022-11-29T07:09:43.730Z,8.03
2022-11-29T07:12:11.011Z,8.17
2022-11-29T07:14:38.240Z,8.77
2022-11-29T07:17:28.704Z,8.27
2022-11-29T07:19:58.864Z,8.00
2022-11-29T07:22:25.924Z,8.23
2022-11-29T07:25:11.826Z,8.20
2022-11-29T07:27:38.904Z,8.23
2022-11-29T07:30:17.606Z,8.13
2022-11-29T07:32:53.675Z,7.93
2022-11-29T07:35:33.350Z,8.20
2022-11-29T07:38:12.394Z,7.57
2022-11-29T07:40:42.422Z,7.23
2022-11-29T07:43:22.135Z,7.87
2022-11-29T07:45:49.380Z,8.13
2022-11-29T07:48:17.282Z,9.00
2022-11-29T07:50:45.276Z,8.80
2022-11-29T07:53:17.538Z,8.20
2022-11-29T07:55:44.774Z,7.87
2022-11-29T07:58:12.853Z,8.67
2022-11-29T08:00:40.276Z,8.87
2022-11-29T08:03:07.330Z,7.83
2022-11-29T08:05:34.470Z,8.30
2022-11-29T08:08:01.642Z,7.57
2022-11-29T08:10:29.006Z,7.27
2022-11-29T08:12:56.147Z,9.07
2022-11-29T08:15:23.706Z,7.90
2022-11-29T08:17:50.972Z,7.83
2022-11-29T08:20:18.179Z,7.70
2022-11-29T08:22:45.273Z,8.03
2022-11-29T08:25:12.856Z,8.27
2022-11-29T08:27:39.970Z,7.60
2022-11-29T08:30:07.505Z,7.73
2022-11-29T08:32:35.162Z,7.87
2022-11-29T08:35:02.231Z,8.17
2022-11-29T08:37:29.400Z,8.20
2022-11-29T08:39:58.218Z,7.33
2022-11-29T08:42:25.340Z,7.60
2022-11-29T08:44:52.376Z,7.70
2022-11-29T08:47:37.807Z,7.63
2022-11-29T08:50:16.720Z,7.50
2022-11-29T08:53:06.510Z,7.50
2022-11-29T08:55:34.984Z,7.67
2022-11-29T08:58:06.914Z,7.17
2022-11-29T09:00:34.291Z,7.40
2022-11-29T09:03:23.538Z,7.60
2022-11-29T09:05:50.851Z,7.33
2022-11-29T09:08:18.021Z,7.37
2022-11-29T09:10:45.328Z,7.87
2022-11-29T09:13:12.650Z,8.20
2022-11-29T09:15:41.783Z,7.57
2022-11-29T09:18:08.854Z,7.60
2022-11-29T09:20:35.950Z,7.63
2022-11-29T09:23:03.080Z,7.20
2022-11-29T09:25:30.148Z,7.13
2022-11-29T09:27:58.609Z,7.10
2022-11-29T09:30:26.409Z,8.50
2022-11-29T09:32:53.507Z,7.70
2022-11-29T09:35:20.583Z,7.77
2022-11-29T09:37:47.650Z,7.50
2022-11-29T09:40:23.371Z,7.20
2022-11-29T09:42:50.410Z,7.23
2022-11-29T09:45:20.021Z,6.50
2022-11-29T09:48:06.130Z,6.83
2022-11-29T09:50:36.190Z,7.27
2022-11-29T09:53:21.407Z,7.20
2022-11-29T09:56:17.792Z,6.87
2022-11-29T09:58:58.313Z,6.77
2022-11-29T10:01:27.561Z,6.67
2022-11-29T10:03:56.360Z,7.23
2022-11-29T10:06:26.601Z,7.50
2022-11-29T10:08:53.643Z,7.40
2022-11-29T10:11:33.828Z,7.90
2022-11-29T10:14:03.644Z,6.87
2022-11-29T10:16:40.179Z,7.23
2022-11-29T10:19:15.114Z,7.00
2022-11-29T10:21:44.385Z,6.73
2022-11-29T10:24:14.719Z,7.20
2022-11-29T10:26:43.417Z,7.43
2022-11-29T10:29:14.609Z,6.80
2022-11-29T10:31:44.069Z,7.20
2022-11-29T10:34:14.240Z,7.40
2022-11-29T10:36:41.363Z,7.33
2022-11-29T10:39:14.755Z,7.73
2022-11-29T10:41:42.048Z,7.37
2022-11-29T10:44:11.226Z,8.20
2022-11-29T10:46:39.173Z,7.43
2022-11-29T10:49:07.861Z,8.20
2022-11-29T10:51:35.218Z,7.10
2022-11-29T10:54:15.626Z,8.53
2022-11-29T10:56:43.649Z,7.70
2022-11-29T10:59:20.032Z,7.90
2022-11-29T11:01:47.287Z,8.30
2022-11-29T11:04:29.496Z,8.30
2022-11-29T11:06:57.800Z,7.63
2022-11-29T11:09:34.143Z,8.13
2022-11-29T11:12:02.626Z,8.10
2022-11-29T11:14:29.660Z,7.63
2022-11-29T11:16:57.216Z,8.33
2022-11-29T11:19:27.854Z,8.73
2022-11-29T11:21:58.845Z,9.03
2022-11-29T11:24:28.718Z,8.67
2022-11-29T11:26:55.932Z,8.30
2022-11-29T11:29:25.099Z,9.33
2022-11-29T11:31:59.075Z,9.37
2022-11-29T11:34:28.333Z,9.47
2022-11-29T11:37:11.726Z,8.80
2022-11-29T11:39:38.813Z,9.03
2022-11-29T11:42:24.654Z,9.47
2022-11-29T11:44:53.319Z,8.93
2022-11-29T11:47:22.147Z,9.43
2022-11-29T11:49:55.248Z,8.80
2022-11-29T11:52:22.269Z,8.80
2022-11-29T11:54:52.572Z,9.07
2022-11-29T11:57:19.818Z,9.33
2022-11-29T11:59:50.719Z,9.10
2022-11-29T12:02:36.364Z,8.70
2022-11-29T12:05:05.665Z,9.30
2022-11-29T12:08:09.855Z,9.07
2022-11-29T12:10:39.737Z,7.60
2022-11-29T12:13:07.844Z,8.13
2022-11-29T12:15:41.437Z,9.47
2022-11-29T12:18:27.398Z,8.23
2022-11-29T12:21:00.662Z,8.30
2022-11-29T12:23:44.131Z,8.80
2022-11-29T12:26:13.638Z,8.67
2022-11-29T12:28:46.840Z,8.13
2022-11-29T12:31:31.525Z,8.43
2022-11-29T12:34:13.938Z,9.07
2022-11-29T12:36:46.770Z,8.10
2022-11-29T12:39:13.844Z,9.17
2022-11-29T12:41:53.979Z,8.80
2022-11-29T12:44:44.737Z,8.90
2022-11-29T12:47:35.741Z,8.90
2022-11-29T12:50:25.948Z,8.60
2022-11-29T12:53:16.035Z,8.90
2022-11-29T12:56:01.354Z,8.77
2022-11-29T12:58:54.573Z,9.17
2022-11-29T13:01:27.860Z,9.53
2022-11-29T13:03:55.038Z,8.50
2022-11-29T13:06:28.504Z,8.60
2022-11-29T13:09:10.695Z,8.33
2022-11-29T13:11:41.049Z,9.00
2022-11-29T13:17:31.455Z,8.30
2022-11-29T13:20:04.757Z,9.27
2022-11-29T13:22:44.808Z,8.73
2022-11-29T13:25:15.599Z,8.77
2022-11-29T13:27:45.411Z,9.57
2022-11-29T13:30:16.186Z,9.80
2022-11-29T13:32:58.497Z,10.33
2022-11-29T13:35:30.993Z,10.27
2022-11-29T13:38:09.846Z,10.27
2022-11-29T13:40:37.304Z,10.60
2022-11-29T13:43:07.350Z,10.37
2022-11-29T13:45:37.490Z,11.50
2022-11-29T13:48:27.668Z,10.37
2022-11-29T13:50:56.566Z,10.43
2022-11-29T13:53:48.658Z,11.40
2022-11-29T13:56:51.562Z,10.10
2022-11-29T13:59:32.172Z,10.43
2022-11-29T14:01:59.787Z,10.90
2022-11-29T14:04:53.146Z,11.20
2022-11-29T14:07:20.427Z,10.33
2022-11-29T14:09:53.070Z,9.97
2022-11-29T14:12:25.982Z,9.87
2022-11-29T14:14:56.295Z,9.83
2022-11-29T14:17:34.167Z,9.33
2022-11-29T14:20:28.356Z,9.57
2022-11-29T14:23:04.663Z,9.90
2022-11-29T14:25:51.115Z,10.50
2022-11-29T14:28:18.915Z,10.67
2022-11-29T14:30:46.142Z,10.37
2022-11-29T14:33:13.180Z,9.73
2022-11-29T14:35:44.242Z,10.30
2022-11-29T14:38:31.218Z,9.93
2022-11-29T14:40:58.375Z,10.53
2022-11-29T14:43:30.082Z,9.77
2022-11-29T14:46:12.489Z,10.33
2022-11-29T14:48:39.822Z,10.93
2022-11-29T14:51:11.709Z,10.07
2022-11-29T14:53:39.403Z,10.53
2022-11-29T14:56:25.273Z,10.50
2022-11-29T14:59:11.063Z,9.63
2022-11-29T15:01:42.555Z,9.70
2022-11-29T15:04:10.448Z,9.40
2022-11-29T15:06:44.050Z,9.43
2022-11-29T15:09:17.729Z,10.03
2022-11-29T15:11:58.438Z,10.33
2022-11-29T15:14:44.798Z,9.97
2022-11-29T15:17:24.472Z,10.57
2022-11-29T15:19:51.582Z,9.80
2022-11-29T15:22:36.949Z,9.67
2022-11-29T15:25:10.673Z,9.07
2022-11-29T15:27:40.245Z,9.67
2022-11-29T15:30:20.525Z,10.03
2022-11-29T15:32:47.732Z,10.60
2022-11-29T15:35:18.704Z,9.93
2022-11-29T15:37:46.815Z,9.83
2022-11-29T15:40:16.012Z,9.73
2022-11-29T15:42:43.118Z,11.00
2022-11-29T15:45:26.517Z,10.23
2022-11-29T15:47:53.998Z,10.13
2022-11-29T15:50:29.248Z,10.47
2022-11-29T15:52:59.861Z,10.87
2022-11-29T15:55:27.700Z,10.10
2022-11-29T15:57:56.627Z,10.87
2022-11-29T16:00:25.574Z,10.33
2022-11-29T16:02:58.474Z,10.90
2022-11-29T16:05:35.612Z,10.93
2022-11-29T16:08:05.027Z,10.63
2022-11-29T16:10:43.455Z,10.77
2022-11-29T16:13:30.744Z,10.87
2022-11-29T16:16:10.360Z,10.10
2022-11-29T16:18:40.631Z,10.43
2022-11-29T16:21:08.583Z,11.03
2022-11-29T16:23:36.536Z,10.03
2022-11-29T16:26:12.791Z,11.27
2022-11-29T16:28:47.244Z,11.57
2022-11-29T16:31:18.722Z,11.17
2022-11-29T16:33:47.442Z,11.10
2022-11-29T16:36:19.527Z,10.80
2022-11-29T16:38:47.915Z,10.87
2022-11-29T16:41:23.064Z,11.17
2022-11-29T16:43:53.602Z,10.27
2022-11-29T16:46:20.719Z,10.03
2022-11-29T16:48:51.119Z,10.27
2022-11-29T16:51:33.386Z,9.90
2022-11-29T16:54:19.920Z,9.97
2022-11-29T16:56:47.021Z,9.87
2022-11-29T16:59:21.065Z,10.00
2022-11-29T17:01:55.447Z,9.77
2022-11-29T17:04:23.641Z,10.43
2022-11-29T17:06:52.692Z,9.87
2022-11-29T17:09:31.375Z,10.70
2022-11-29T17:12:01.957Z,8.93
2022-11-29T17:14:29.743Z,10.07
2022-11-29T17:16:56.916Z,10.20
2022-11-29T17:19:24.561Z,9.27
2022-11-29T17:21:52.894Z,9.60
2022-11-29T17:24:20.773Z,10.13
2022-11-29T17:26:47.821Z,9.07
2022-11-29T17:29:15.856Z,9.03
2022-11-29T17:31:46.536Z,10.43
2022-11-29T17:34:13.788Z,10.63
2022-11-29T17:36:40.921Z,10.00
2022-11-29T17:39:08.053Z,10.30
2022-11-29T17:41:35.350Z,10.57
2022-11-29T17:44:02.451Z,9.70
2022-11-29T17:46:30.733Z,9.97
2022-11-29T17:48:59.719Z,10.20
2022-11-29T17:51:51.086Z,9.50
2022-11-29T17:54:13.958Z,10.07
2022-11-29T17:56:41.049Z,10.53
2022-11-29T17:59:08.100Z,10.80
2022-11-29T18:01:36.737Z,10.63
2022-11-29T18:04:05.227Z,9.93
2022-11-29T18:06:35.716Z,10.30
2022-11-29T18:09:04.103Z,11.03
2022-11-29T18:11:41.639Z,10.17
2022-11-29T18:14:12.877Z,9.87
2022-11-29T18:16:40.190Z,10.57
2022-11-29T18:19:08.691Z,9.90
2022-11-29T18:21:36.163Z,11.37
2022-11-29T18:24:04.576Z,10.80
2022-11-29T18:26:32.744Z,11.50
2022-11-29T18:29:00.224Z,11.07
2022-11-29T18:31:28.511Z,11.27
2022-11-29T18:33:57.816Z,11.27
2022-11-29T18:36:26.578Z,11.40
2022-11-29T18:38:57.825Z,10.17
2022-11-29T18:41:25.644Z,10.87
2022-11-29T18:43:57.813Z,10.63
2022-11-29T18:46:25.498Z,10.90
2022-11-29T18:48:52.854Z,11.43
2022-11-29T18:51:20.984Z,11.40
2022-11-29T18:53:48.097Z,11.90
2022-11-29T18:56:16.720Z,10.73
2022-11-29T18:58:44.377Z,12.37
2022-11-29T19:01:13.105Z,10.73
2022-11-29T19:03:41.285Z,10.60
2022-11-29T19:06:10.032Z,11.60
2022-11-29T19:08:37.246Z,10.80
2022-11-29T19:11:05.049Z,12.03
2022-11-29T19:13:32.171Z,11.63
2022-11-29T19:15:59.317Z,10.93
2022-11-29T19:18:26.472Z,12.20
2022-11-29T19:20:53.606Z,12.13
2022-11-29T19:23:21.373Z,12.40
2022-11-29T19:25:48.535Z,11.43
2022-11-29T19:28:15.603Z,12.03
2022-11-29T19:30:42.790Z,12.27
2022-11-29T19:33:09.980Z,12.57
2022-11-29T19:35:37.103Z,11.93
2022-11-29T19:38:04.184Z,11.70
2022-11-29T19:40:31.289Z,11.43
2022-11-29T19:42:58.335Z,11.50
2022-11-29T19:45:25.378Z,12.27
2022-11-29T19:47:52.401Z,11.80
2022-11-29T19:50:19.463Z,12.10
2022-11-29T19:52:46.509Z,12.80
2022-11-29T19:55:13.650Z,11.93
2022-11-29T19:57:40.819Z,11.97
2022-11-29T20:00:08.347Z,11.90
2022-11-29T20:02:35.468Z,11.23
2022-11-29T20:05:02.571Z,11.97
2022-11-29T20:07:29.681Z,11.67
2022-11-29T20:09:56.808Z,11.93
2022-11-29T20:12:23.845Z,12.17
2022-11-29T20:14:50.896Z,12.10
2022-11-29T20:17:18.124Z,11.83
2022-11-29T20:19:45.788Z,11.90
2022-11-29T20:22:13.153Z,12.67
2022-11-29T20:24:45.170Z,12.10
2022-11-29T20:27:12.736Z,11.93
2022-11-29T20:29:41.037Z,11.53
2022-11-29T20:32:08.102Z,10.97
2022-11-29T20:34:35.339Z,11.17
2022-11-29T20:37:21.051Z,12.43
2022-11-29T20:40:02.390Z,11.67
2022-11-29T20:42:29.541Z,10.37
2022-11-29T20:45:00.421Z,11.63
2022-11-29T20:47:47.795Z,11.50
2022-11-29T20:50:23.815Z,11.10
2022-11-29T20:53:10.068Z,10.27
2022-11-29T20:55:42.457Z,10.27
2022-11-29T20:58:13.580Z,11.47
2022-11-29T21:00:40.689Z,11.27
2022-11-29T21:03:07.713Z,10.47
2022-11-29T21:05:37.411Z,10.47
2022-11-29T21:08:04.566Z,10.73
2022-11-29T21:10:31.661Z,11.40
2022-11-29T21:12:58.798Z,11.03
2022-11-29T21:15:26.046Z,11.10
2022-11-29T21:17:53.501Z,11.03
2022-11-29T21:20:24.590Z,10.50
2022-11-29T21:22:54.785Z,10.57
2022-11-29T21:25:36.907Z,10.37
2022-11-29T21:28:08.179Z,9.87
2022-11-29T21:30:35.404Z,10.93
2022-11-29T21:33:02.895Z,10.40
2022-11-29T21:35:29.909Z,9.70
2022-11-29T21:37:59.121Z,10.40
2022-11-29T21:40:26.246Z,10.47
2022-11-29T21:42:53.311Z,9.90
2022-11-29T21:45:20.391Z,10.27
2022-11-29T21:47:47.462Z,9.80
2022-11-29T21:50:14.533Z,9.60
2022-11-29T21:52:41.932Z,8.90
2022-11-29T21:55:09.354Z,10.43
2022-11-29T21:57:36.450Z,9.60
2022-11-29T22:00:03.789Z,10.53
2022-11-29T22:02:30.955Z,10.23
2022-11-29T22:04:58.082Z,9.80
2022-11-29T22:07:25.247Z,8.80
2022-11-29T22:09:52.437Z,9.70
2022-11-29T22:12:33.602Z,9.43
2022-11-29T22:15:01.635Z,9.30
2022-11-29T22:17:28.730Z,9.93
2022-11-29T22:19:55.757Z,9.80
2022-11-29T22:22:23.649Z,10.47
2022-11-29T22:24:53.016Z,9.47
2022-11-29T22:27:21.087Z,9.37
2022-11-29T22:29:48.746Z,9.33
2022-11-29T22:32:15.807Z,10.77
2022-11-29T22:34:42.908Z,9.07
2022-11-29T22:37:10.005Z,9.07
2022-11-29T22:39:37.052Z,9.87
2022-11-29T22:42:04.160Z,9.90
2022-11-29T22:44:31.306Z,8.60
2022-11-29T22:46:58.394Z,9.33
2022-11-29T22:49:25.528Z,8.30
2022-11-29T22:51:53.291Z,9.60
2022-11-29T22:54:20.416Z,8.97
2022-11-29T22:56:47.750Z,9.73
2022-11-29T22:59:14.909Z,8.33
2022-11-29T23:01:42.460Z,8.80
2022-11-29T23:04:10.061Z,8.73
2022-11-29T23:06:38.657Z,9.33
2022-11-29T23:09:10.637Z,9.20
2022-11-29T23:11:37.739Z,10.13
2022-11-29T23:14:05.049Z,8.93
2022-11-29T23:16:32.902Z,9.40
2022-11-29T23:19:00.435Z,9.20
2022-11-29T23:21:28.949Z,9.47
2022-11-29T23:23:56.913Z,9.43
2022-11-29T23:26:25.909Z,9.57
2022-11-29T23:28:53.556Z,9.40
2022-11-29T23:31:21.396Z,8.70
2022-11-29T23:33:48.710Z,9.27
2022-11-29T23:36:16.693Z,8.87
2022-11-29T23:38:44.182Z,8.30
2022-11-29T23:41:11.708Z,9.57
2022-11-29T23:43:40.229Z,8.77
2022-11-29T23:46:12.887Z,8.47
2022-11-29T23:48:40.076Z,9.10
2022-11-29T23:51:07.192Z,8.93
2022-11-29T23:53:34.418Z,8.77
2022-11-29T23:56:03.404Z,9.40
2022-11-29T23:58:31.119Z,9.10
